M I D A S
Marine Information and Data Acquisition System
Tripno 655 of the Zeeleeuw from 2004-02-25 07:30:40 to 2004-02-25 11:38:24
Back to CruiseResearch ActivitiesStationsMapUnderway DataData graphs

EquipmentUnitsComment
TimeDGPSUTC
LatitudeDGPSDM.mWGS84
LongitudeDGPSDM.mWGS84
TemperatureSBE03/SBE38deg celciusITS90
ConductivitySBE21S/mITS90
SalinitySBE21 Practical Salinity Units
ChlorophylAChelsea fluorimeterg/lCalibrated in Aceton
Missing or incorrect values are displayed as -999
Sea surface data collected by the RV Zeeleeuw from 2004-02-25 07:30:40 to 2004-02-25 11:38:24
Time Latitude Longitude Temperature Conductivity Salinity ChlorophylA
2004-02-25 07:31:44 51°13.608 2°56.057 12.224464 4.119097 31.596274 -0.882377
2004-02-25 07:32:44 51°13.645 2°55.956 12.250803 4.118887 31.595616 -0.882377
2004-02-25 07:33:44 51°13.679 2°55.838 12.254882 4.118781 31.594714 -0.882377
2004-02-25 07:34:44 51°13.692 2°55.751 12.322739 4.118781 31.594714 -0.848668
2004-02-25 07:35:44 51°13.707 2°55.768 12.230358 4.118676 31.595532 -0.882377
2004-02-25 07:36:44 51°13.705 2°55.751 12.270425 4.118465 31.594301 -0.882377
2004-02-25 07:37:44 51°13.773 2°55.68 12.235527 4.11857 31.59463 -0.882377
2004-02-25 07:38:44 51°13.876 2°55.597 12.300278 4.118465 31.59602 -0.848668
2004-02-25 07:39:44 51°13.992 2°55.519 12.276497 4.118359 31.595118 -0.882377
2004-02-25 07:40:44 51°14.109 2°55.434 12.271558 4.118254 31.595363 -0.882377
2004-02-25 07:41:44 51°14.248 2°55.278 12.247675 4.118043 31.595278 -0.882377
2004-02-25 07:42:44 51°14.374 2°55.042 12.037935 4.118254 31.598229 -0.882377
2004-02-25 07:43:44 51°14.404 2°54.752 12.134035 4.117305 31.592402 -0.882377
2004-02-25 07:44:44 51°14.388 2°54.507 12.053666 4.117727 31.595438 -0.848668
2004-02-25 07:45:44 51°14.32 2°54.223 12.086343 4.116567 31.589526 -0.848668
2004-02-25 07:46:44 51°14.205 2°53.896 12.065303 4.116462 31.588624 -0.882377
2004-02-25 07:47:44 51°14.086 2°53.56 12.052893 4.116251 31.589112 -0.882377
2004-02-25 07:48:44 51°13.971 2°53.217 12.078346 4.115935 31.588125 -0.848668
2004-02-25 07:49:44 51°13.858 2°52.873 12.098792 4.115935 31.589272 -0.848668
2004-02-25 07:50:44 51°13.747 2°52.532 12.099791 4.11604 31.590748 -0.882377
2004-02-25 07:51:44 51°13.638 2°52.193 12.109694 4.116251 31.59198 -0.848668
2004-02-25 07:52:44 51°13.527 2°51.852 12.116234 4.115724 31.587467 -0.882377
2004-02-25 07:53:44 51°13.415 2°51.508 12.130266 4.115197 31.582954 -0.848668
2004-02-25 07:54:44 51°13.302 2°51.165 12.142162 4.114986 31.58287 -0.848668
2004-02-25 07:55:44 51°13.19 2°50.819 12.149607 4.115197 31.586395 -0.848668
2004-02-25 07:56:44 51°13.072 2°50.476 12.161 4.115302 31.586724 -0.882377
2004-02-25 07:57:44 51°12.953 2°50.137 12.170984 4.115197 31.587542 -0.848668
2004-02-25 07:58:44 51°12.833 2°49.797 12.177609 4.11488 31.583687 -0.882377
2004-02-25 07:59:44 51°12.716 2°49.458 12.189133 4.114986 31.585163 -0.882377
2004-02-25 08:00:44 51°12.596 2°49.119 12.199203 4.115197 31.586969 -0.882377
2004-02-25 08:01:44 51°12.479 2°48.777 12.208955 4.115197 31.588116 -0.882377
2004-02-25 08:02:44 51°12.36 2°48.44 12.217209 4.114353 31.583189 -0.882377
2004-02-25 08:03:44 51°12.242 2°48.103 12.218342 4.11488 31.586555 -0.882377
2004-02-25 08:04:44 51°12.125 2°47.766 12.229134 4.114248 31.582859 -0.848668
2004-02-25 08:05:44 51°12.01 2°47.428 12.242916 4.11467 31.587044 -0.882377
2004-02-25 08:06:44 51°11.893 2°47.089 12.247358 4.114142 31.581383 -0.882377
2004-02-25 08:07:44 51°11.811 2°46.725 12.255607 4.114353 31.584336 -0.882377
2004-02-25 08:08:44 51°11.732 2°46.36 12.257601 4.114353 31.584909 -0.882377
2004-02-25 08:09:44 51°11.654 2°45.991 12.263356 4.113826 31.582116 -0.916087
2004-02-25 08:10:44 51°11.573 2°45.625 12.271649 4.113931 31.582446 -0.882377
2004-02-25 08:11:44 51°11.493 2°45.26 12.289272 4.114248 31.583433 -0.882377
2004-02-25 08:12:44 51°11.414 2°44.894 12.291401 4.113721 31.581214 -0.882377
2004-02-25 08:13:44 51°11.335 2°44.528 12.301184 4.114248 31.586301 -0.882377
2004-02-25 08:14:44 51°11.256 2°44.164 12.305441 4.114248 31.585727 -0.882377
2004-02-25 08:15:44 51°11.177 2°43.799 12.314317 4.113932 31.583593 -0.848668
2004-02-25 08:16:44 51°11.098 2°43.435 12.322512 4.113932 31.585314 -0.882377
2004-02-25 08:17:44 51°11.019 2°43.072 12.338719 4.113826 31.583837 -0.882377
2004-02-25 08:18:44 51°10.942 2°42.709 12.341752 4.113932 31.58474 -0.882377
2004-02-25 08:19:44 51°10.869 2°42.34 12.344286 4.113193 31.580141 -0.848668
2004-02-25 08:20:44 51°10.806 2°41.967 12.352614 4.11351 31.583423 -0.882377
2004-02-25 08:21:44 51°10.743 2°41.597 12.36836 4.113721 31.583508 -0.882377
2004-02-25 08:22:44 51°10.68 2°41.225 12.37017 4.113299 31.581618 -0.882377
2004-02-25 08:23:44 51°10.618 2°40.851 12.385189 4.113721 31.585229 -0.848668
2004-02-25 08:24:44 51°10.554 2°40.479 12.380394 4.113404 31.583094 -0.882377
2004-02-25 08:25:44 51°10.49 2°40.106 12.394461 4.113615 31.586048 -0.882377
2004-02-25 08:26:44 51°10.425 2°39.732 12.396768 4.113194 31.58301 -0.916087
2004-02-25 08:27:44 51°10.363 2°39.359 12.410469 4.113088 31.581533 -0.882377
2004-02-25 08:28:44 51°10.299 2°38.992 12.40961 4.112877 31.580875 -0.882377
2004-02-25 08:29:44 51°10.238 2°38.625 12.424078 4.113299 31.583339 -0.882377
2004-02-25 08:30:44 51°10.174 2°38.26 12.430813 4.113299 31.584486 -0.882377
2004-02-25 08:31:44 51°10.114 2°37.888 12.439085 4.113088 31.582107 -0.848668
2004-02-25 08:32:44 51°10.053 2°37.514 12.450835 4.112983 31.581204 -0.848668
2004-02-25 08:33:44 51°9.991 2°37.142 12.454269 4.113194 31.583583 -0.882377
2004-02-25 08:34:44 51°9.973 2°36.763 12.463079 4.112877 31.580875 -0.882377
2004-02-25 08:35:44 51°9.988 2°36.381 12.462311 4.112561 31.579313 -0.848668
2004-02-25 08:36:44 51°10.027 2°36.012 12.477039 4.112561 31.579887 -0.848668
2004-02-25 08:37:44 51°10.18 2°35.758 12.485666 4.113088 31.584976 -0.882377
2004-02-25 08:38:44 51°10.387 2°35.684 12.489324 4.112772 31.583414 -0.882377
2004-02-25 08:39:44 51°10.591 2°35.757 12.492575 4.112877 31.584891 -0.848668
2004-02-25 08:40:44 51°10.78 2°35.899 12.506257 4.113194 31.588174 -0.848668
2004-02-25 08:41:44 51°10.963 2°36.063 12.50698 4.112983 31.585794 -0.882377
2004-02-25 08:42:44 51°11.141 2°36.24 12.504948 4.11235 31.581524 -0.882377
2004-02-25 08:43:44 51°11.318 2°36.413 12.523728 4.113088 31.588419 -0.882377
2004-02-25 08:44:44 51°11.496 2°36.587 12.530228 4.112772 31.583988 -0.882377
2004-02-25 08:45:44 51°11.674 2°36.765 12.540788 4.113088 31.587271 -0.882377
2004-02-25 08:46:44 51°11.852 2°36.94 12.538397 4.11235 31.582097 -0.882377
2004-02-25 08:47:44 51°12.029 2°37.113 12.550535 4.112666 31.584807 -0.882377
2004-02-25 08:48:44 51°12.206 2°37.286 12.5379 4.112034 31.580536 -0.882377
2004-02-25 08:49:44 51°12.381 2°37.456 12.551031 4.112139 31.581439 -0.848668
2004-02-25 08:50:44 51°12.555 2°37.628 12.575933 4.11235 31.583245 -0.882377
2004-02-25 08:51:44 51°12.736 2°37.789 12.57246 4.11235 31.583819 -0.882377
2004-02-25 08:52:44 51°12.913 2°37.959 12.593115 4.113299 31.590799 -0.848668
2004-02-25 08:53:44 51°13.088 2°38.129 12.584006 4.111823 31.580451 -0.848668
2004-02-25 08:54:44 51°13.271 2°38.29 12.585133 4.112139 31.582013 -0.882377
2004-02-25 08:55:44 51°13.457 2°38.444 12.597804 4.111928 31.581354 -0.916087
2004-02-25 08:56:44 51°13.651 2°38.567 12.608715 4.111823 31.579877 -0.882377
2004-02-25 08:57:44 51°13.853 2°38.662 12.619038 4.11235 31.586689 -0.882377
2004-02-25 08:58:44 51°14.047 2°38.622 12.595821 4.111507 31.583481 -0.848668
2004-02-25 08:59:44 51°14.029 2°38.282 12.643824 4.112456 31.583574 -0.882377
2004-02-25 09:00:44 51°13.908 2°37.945 12.644905 4.112456 31.584722 -0.882377
2004-02-25 09:01:44 51°13.803 2°37.589 12.644094 4.111718 31.580696 -0.882377
2004-02-25 09:02:44 51°13.701 2°37.231 12.655447 4.111507 31.580037 -0.848668
2004-02-25 09:03:44 51°13.6 2°36.872 12.642292 4.111823 31.581599 -0.848668
2004-02-25 09:04:44 51°13.494 2°36.52 12.656889 4.11098 31.576669 -0.882377
2004-02-25 09:05:44 51°13.393 2°36.161 12.670357 4.111296 31.577657 -0.848668
2004-02-25 09:06:44 51°13.296 2°35.8 12.692558 4.111296 31.577657 -0.848668
2004-02-25 09:07:44 51°13.196 2°35.444 12.67378 4.11098 31.576669 -0.848668
2004-02-25 09:08:44 51°13.099 2°35.086 12.694899 4.111296 31.575362 -0.882377
2004-02-25 09:09:44 51°13.001 2°34.726 12.714751 4.111401 31.579708 -0.848668
2004-02-25 09:10:44 51°12.901 2°34.368 12.714616 4.111401 31.580282 -0.848668
2004-02-25 09:11:44 51°12.801 2°34.008 12.708089 4.111507 31.582333 -0.882377
2004-02-25 09:12:44 51°12.701 2°33.646 12.727262 4.111085 31.581016 -0.848668
2004-02-25 09:13:44 51°12.596 2°33.288 12.725372 4.110769 31.576584 -0.882377
2004-02-25 09:14:44 51°12.494 2°32.929 12.722897 4.11119 31.57905 -0.882377
2004-02-25 09:15:44 51°12.392 2°32.57 12.74544 4.11098 31.579539 -0.848668
2004-02-25 09:16:44 51°12.289 2°32.215 12.762803 4.110663 31.576829 -0.848668
2004-02-25 09:17:44 51°12.186 2°31.858 12.765997 4.110769 31.577158 -0.848668
2004-02-25 09:18:44 51°12.093 2°31.494 12.784254 4.110874 31.578062 -0.882377
2004-02-25 09:19:44 51°12.001 2°31.128 12.789244 4.111191 31.583068 -0.882377
2004-02-25 09:20:44 51°11.909 2°30.76 12.801472 4.111085 31.58159 -0.848668
2004-02-25 09:21:44 51°11.816 2°30.391 12.813428 4.11098 31.580113 -0.882377
2004-02-25 09:22:44 51°11.725 2°30.022 12.803899 4.110347 31.574693 -0.882377
2004-02-25 09:23:44 51°11.632 2°29.652 12.828886 4.110452 31.575022 -0.882377
2004-02-25 09:24:44 51°11.541 2°29.28 12.83284 4.110663 31.577403 -0.882377
2004-02-25 09:25:44 51°11.451 2°28.906 12.838052 4.110347 31.575267 -0.848668
2004-02-25 09:26:44 51°11.369 2°28.522 12.866215 4.110452 31.575596 -0.882377
2004-02-25 09:27:44 51°11.288 2°28.134 12.860331 4.110136 31.575182 -0.882377
2004-02-25 09:28:44 51°11.208 2°27.742 12.867562 4.110663 31.579699 -0.882377
2004-02-25 09:29:44 51°11.146 2°27.344 12.876004 4.109714 31.571569 -0.848668
2004-02-25 09:30:44 51°11.114 2°26.939 12.889293 4.110242 31.576086 -0.882377
2004-02-25 09:31:44 51°11.111 2°26.534 12.902983 4.110347 31.578137 -0.882377
2004-02-25 09:32:44 51°11.124 2°26.134 12.91169 4.110347 31.577563 -0.882377
2004-02-25 09:33:44 51°11.15 2°25.738 12.910613 4.110136 31.576904 -0.848668
2004-02-25 09:34:44 51°11.23 2°25.369 12.93538 4.111085 31.585035 -0.882377
2004-02-25 09:35:44 51°11.415 2°25.208 12.936143 4.110031 31.577723 -0.882377
2004-02-25 09:36:44 51°11.596 2°25.349 12.941257 4.110453 31.580763 -0.882377
2004-02-25 09:37:44 51°11.749 2°25.567 12.943006 4.109714 31.575587 -0.814958
2004-02-25 09:38:44 51°11.916 2°25.762 12.945787 4.110347 31.580434 -0.882377
2004-02-25 09:39:44 51°12.085 2°25.951 12.956775 4.110031 31.578871 -0.882377
2004-02-25 09:40:44 51°12.252 2°26.133 12.97655 4.109925 31.577968 -0.882377
2004-02-25 09:41:44 51°12.422 2°26.308 12.985067 4.110453 31.584783 -0.882377
2004-02-25 09:42:44 51°12.591 2°26.484 12.995466 4.109925 31.578542 -0.882377
2004-02-25 09:43:44 51°12.747 2°26.687 12.990312 4.109398 31.575173 -0.882377
2004-02-25 09:44:44 51°12.898 2°26.896 13.002458 4.110136 31.582072 -0.882377
2004-02-25 09:45:44 51°13.053 2°27.105 13.028311 4.110347 31.58273 -0.882377
2004-02-25 09:46:44 51°13.209 2°27.313 13.009762 4.109398 31.576895 -0.882377
2004-02-25 09:47:44 51°13.364 2°27.519 13.017917 4.109715 31.579032 -0.882377
2004-02-25 09:48:44 51°13.518 2°27.727 13.044034 4.110136 31.582072 -0.882377
2004-02-25 09:49:44 51°13.674 2°27.934 13.038077 4.109609 31.578128 -0.882377
2004-02-25 09:50:44 51°13.836 2°28.143 13.05111 4.109609 31.580425 -0.848668
2004-02-25 09:51:44 51°13.993 2°28.354 13.05111 4.109715 31.580755 -0.882377
2004-02-25 09:52:44 51°14.149 2°28.564 13.079272 4.109715 31.58018 -0.882377
2004-02-25 09:53:44 51°14.298 2°28.791 13.090462 4.109925 31.580265 -0.882377
2004-02-25 09:54:44 51°14.453 2°29.01 13.062886 4.109082 31.575907 -0.882377
2004-02-25 09:55:44 51°14.61 2°29.224 13.08066 4.109504 31.577799 -0.848668
2004-02-25 09:56:44 51°14.764 2°29.436 13.108541 4.110347 31.586751 -0.848668
2004-02-25 09:57:44 51°14.916 2°29.653 13.09449 4.10982 31.582233 -0.882377
2004-02-25 09:58:44 51°15.074 2°29.861 13.107467 4.109609 31.581 -0.882377
2004-02-25 09:59:44 51°15.231 2°30.071 13.11986 4.110136 31.585518 -0.848668
2004-02-25 10:00:44 51°15.386 2°30.283 13.132296 4.109187 31.577385 -0.848668
2004-02-25 10:01:44 51°15.542 2°30.49 13.12751 4.109504 31.578947 -0.916087
2004-02-25 10:02:44 51°15.698 2°30.702 13.131938 4.109715 31.580755 -0.882377
2004-02-25 10:03:44 51°15.854 2°30.911 13.156087 4.110242 31.588145 -0.848668
2004-02-25 10:04:44 51°16.008 2°31.118 13.158144 4.109925 31.583711 -0.882377
2004-02-25 10:05:44 51°16.157 2°31.344 13.155104 4.109715 31.582478 -0.882377
2004-02-25 10:06:44 51°16.301 2°31.576 13.13981 4.108766 31.578365 -0.882377
2004-02-25 10:07:44 51°16.445 2°31.805 13.179066 4.109398 31.580341 -0.882377
2004-02-25 10:08:44 51°16.592 2°32.033 13.169097 4.109293 31.581735 -0.848668
2004-02-25 10:09:44 51°16.737 2°32.266 13.19073 4.109082 31.581076 -0.916087
2004-02-25 10:10:44 51°16.881 2°32.495 13.191714 4.109504 31.582393 -0.848668
2004-02-25 10:11:44 51°17.025 2°32.721 13.184831 4.108766 31.576642 -0.848668
2004-02-25 10:12:44 51°17.177 2°32.941 13.198997 4.10982 31.585105 -0.882377
2004-02-25 10:13:44 51°17.326 2°33.155 13.204583 4.108766 31.578365 -0.882377
2004-02-25 10:14:44 51°17.475 2°33.367 13.223212 4.10982 31.585679 -0.882377
2004-02-25 10:15:44 51°17.62 2°33.572 13.221068 4.108766 31.576068 -0.882377
2004-02-25 10:16:44 51°17.767 2°33.781 13.231341 4.109609 31.584446 -0.882377
2004-02-25 10:17:44 51°17.915 2°33.988 13.216869 4.108555 31.577132 -0.848668
2004-02-25 10:18:44 51°18.063 2°34.196 13.224864 4.108871 31.579843 -0.848668
2004-02-25 10:19:44 51°18.211 2°34.403 13.254293 4.108977 31.579024 -0.848668
2004-02-25 10:20:44 51°18.355 2°34.614 13.247864 4.109504 31.58584 -0.882377
2004-02-25 10:21:44 51°18.5 2°34.825 13.244247 4.109082 31.583949 -0.882377
2004-02-25 10:22:44 51°18.646 2°35.036 13.245408 4.109082 31.5828 -0.848668
2004-02-25 10:23:44 51°18.791 2°35.241 13.266257 4.109082 31.581076 -0.848668
2004-02-25 10:24:44 51°18.937 2°35.452 13.233618 4.107817 31.570806 -0.882377
2004-02-25 10:25:44 51°19.081 2°35.66 13.25282 4.108871 31.581566 -0.882377
2004-02-25 10:26:44 51°19.224 2°35.866 13.276077 4.109188 31.584278 -0.882377
2004-02-25 10:27:44 51°19.368 2°36.074 13.268087 4.109188 31.585427 -0.882377
2004-02-25 10:28:44 51°19.503 2°36.295 13.287279 4.109187 31.583703 -0.848668
2004-02-25 10:29:44 51°19.602 2°36.563 13.28237 4.108239 31.575569 -0.882377
2004-02-25 10:30:44 51°19.638 2°36.874 13.277773 4.108555 31.580578 -0.882377
2004-02-25 10:31:44 51°19.658 2°37.193 13.292098 4.10866 31.581482 -0.882377
2004-02-25 10:32:44 51°19.689 2°37.518 13.275274 4.108344 31.578771 -0.882377
2004-02-25 10:33:44 51°19.722 2°37.84 13.314628 4.108555 31.578855 -0.882377
2004-02-25 10:34:44 51°19.734 2°38.167 13.310524 4.108766 31.581812 -0.848668
2004-02-25 10:35:44 51°19.739 2°38.495 13.332335 4.108871 31.584439 -0.882377
2004-02-25 10:36:44 51°19.724 2°38.826 13.314673 4.109188 31.584278 -0.882377
2004-02-25 10:37:44 51°19.704 2°39.156 13.343304 4.108555 31.579429 -0.882377
2004-02-25 10:38:44 51°19.692 2°39.487 13.293526 4.108977 31.585343 -0.882377
2004-02-25 10:39:44 51°19.691 2°39.819 13.272908 4.108555 31.579429 -0.848668
2004-02-25 10:40:44 51°19.69 2°40.149 13.299817 4.108028 31.576059 -0.848668
2004-02-25 10:41:44 51°19.695 2°40.48 13.324887 4.108344 31.577047 -0.882377
2004-02-25 10:42:44 51°19.702 2°40.802 13.319223 4.107711 31.576794 -0.882377
2004-02-25 10:43:44 51°19.735 2°41.123 13.281031 4.108555 31.585175 -0.882377
2004-02-25 10:44:44 51°19.772 2°41.443 13.360423 4.108555 31.582302 -0.882377
2004-02-25 10:45:44 51°19.808 2°41.757 13.365193 4.108344 31.581643 -0.848668
2004-02-25 10:46:44 51°19.842 2°42.069 13.370408 4.108239 31.57959 -0.848668
2004-02-25 10:47:44 51°19.865 2°42.39 13.362474 4.108133 31.582708 -0.882377
2004-02-25 10:48:44 51°19.884 2°42.71 13.392466 4.108555 31.581153 -0.882377
2004-02-25 10:49:44 51°19.904 2°43.032 13.398525 4.108133 31.578686 -0.882377
2004-02-25 10:50:44 51°19.904 2°43.363 13.403069 4.107922 31.579751 -0.882377
2004-02-25 10:51:44 51°19.874 2°43.687 13.40053 4.108133 31.577537 -0.882377
2004-02-25 10:52:44 51°19.834 2°44.01 13.335902 4.108133 31.583858 -0.882377
2004-02-25 10:53:44 51°19.789 2°44.336 13.379856 4.108344 31.582218 -0.882377
2004-02-25 10:54:44 51°19.74 2°44.66 13.420529 4.107501 31.57671 -0.882377
2004-02-25 10:55:44 51°19.694 2°44.99 13.370675 4.108344 31.583942 -0.882377
2004-02-25 10:56:44 51°19.651 2°45.319 13.398302 4.107922 31.578602 -0.916087
2004-02-25 10:57:44 51°19.614 2°45.641 13.392555 4.107817 31.577124 -0.882377
2004-02-25 10:58:44 51°19.568 2°45.967 13.370319 4.107395 31.578679 -0.882377
2004-02-25 10:59:44 51°19.52 2°46.293 13.453122 4.107079 31.576541 -0.882377
2004-02-25 11:00:44 51°19.464 2°46.611 13.380613 4.107712 31.58254 -0.848668
2004-02-25 11:01:44 51°19.419 2°46.935 13.468967 4.10729 31.574328 -0.848668
2004-02-25 11:02:44 51°19.371 2°47.263 13.439766 4.108028 31.584103 -0.882377
2004-02-25 11:03:44 51°19.311 2°47.582 13.430416 4.10729 31.579499 -0.848668
2004-02-25 11:04:44 51°19.243 2°47.9 13.454813 4.107079 31.57252 -0.848668
2004-02-25 11:05:44 51°19.172 2°48.216 13.48512 4.106763 31.570957 -0.848668
2004-02-25 11:06:44 51°19.103 2°48.534 13.455437 4.10729 31.580648 -0.882377
2004-02-25 11:07:44 51°19.041 2°48.856 13.509587 4.106763 31.573829 -0.882377
2004-02-25 11:08:44 51°18.972 2°49.177 13.461446 4.106657 31.567181 -0.882377
2004-02-25 11:09:44 51°18.898 2°49.491 13.523595 4.10613 31.564385 -0.848668
2004-02-25 11:10:44 51°18.808 2°49.798 13.497443 4.106868 31.572435 -0.848668
2004-02-25 11:11:44 51°18.708 2°50.098 13.502114 4.106868 31.57301 -0.848668
2004-02-25 11:12:44 51°18.575 2°50.376 13.47671 4.106341 31.562747 -0.848668
2004-02-25 11:13:44 51°18.439 2°50.649 13.533733 4.10613 31.580474 -0.882377
2004-02-25 11:14:44 51°18.306 2°50.927 13.500246 4.106763 31.5813 -0.882377
2004-02-25 11:15:44 51°18.169 2°51.208 13.390862 4.106657 31.582696 -0.848668
2004-02-25 11:16:44 51°18.02 2°51.473 13.553871 4.106236 31.57563 -0.882377
2004-02-25 11:17:44 51°17.857 2°51.723 13.571559 4.10613 31.574726 -0.882377
2004-02-25 11:18:44 51°17.668 2°51.932 13.51359 4.106236 31.57448 -0.916087
2004-02-25 11:19:44 51°17.448 2°52.086 13.550537 4.10613 31.57645 -0.848668
2004-02-25 11:20:44 51°17.218 2°52.223 13.546803 4.106236 31.579079 -0.882377
2004-02-25 11:21:44 51°16.99 2°52.361 13.492283 4.106341 31.582858 -0.848668
2004-02-25 11:22:44 51°16.77 2°52.512 13.576358 4.106341 31.578833 -0.882377
2004-02-25 11:23:44 51°16.552 2°52.674 13.572403 4.106446 31.580887 -0.882377
2004-02-25 11:24:44 51°16.334 2°52.852 13.583777 4.106552 31.581217 -0.882377
2004-02-25 11:25:44 51°16.157 2°52.995 13.580756 4.106236 31.576779 -0.848668
2004-02-25 11:26:44 51°16.018 2°53.103 13.59937 4.106236 31.576205 -0.848668
2004-02-25 11:27:44 51°15.877 2°53.208 13.590352 4.106446 31.579163 -0.882377
2004-02-25 11:28:44 51°15.668 2°53.339 13.615047 4.106025 31.57612 -0.882377
2004-02-25 11:29:44 51°15.454 2°53.497 13.6186 4.106341 31.577684 -0.882377
2004-02-25 11:30:44 51°15.232 2°53.641 13.624683 4.106236 31.576205 -0.848668
2004-02-25 11:31:44 51°15.065 2°53.855 13.620864 4.106552 31.578917 -0.848668
2004-02-25 11:32:44 51°14.908 2°54.095 13.62677 4.106236 31.576205 -0.882377
2004-02-25 11:33:44 51°14.729 2°54.316 13.642174 4.106341 31.573661 -0.882377
2004-02-25 11:34:44 51°14.552 2°54.556 13.633207 4.106446 31.577438 -0.882377
2004-02-25 11:35:44 51°14.428 2°54.847 13.63991 4.106446 31.575139 -0.882377
2004-02-25 11:36:44 51°14.313 2°55.125 13.635338 4.106446 31.579737 -0.882377
2004-02-25 11:37:45 51°14.202 2°55.355 13.648788 4.106341 31.577684 -0.882377